Weld, ME

9:54 AM EDT on March 29, 2015 (GMT -0400)
Center Hill Road | | Change Station
CLOSE
Current Station
Personal Weather Station
Location: Weld, ME
Elevation: 1038 ft
Nearby Weather Stations

Elev 1038 ft 44.71 °N, 70.41 °W | Updated 23 seconds ago

Clear
Clear
28.8 °F
Feels Like 23 °F
N
5.0
Wind Variable Wind from NW
Gusts 12.0 mph

Today
High -- | Low -- °F
--% Chance of Precip.
Yesterday
High -- | Low -- °F
Precip. -- in
6:28 AM 7:05 PM
Waxing Gibbous, 71% visible
Pressure 30.17 in
Visibility 10.0 miles
Clouds Clear
Windchill 23 °F
Dew Point 5 °F
Humidity 36%
Rainfall 0.00 in
Snow Depth Not available.
UV 2 out of 12
Pollen 3.70 out of 12
Air Quality Not available.
Flu Activity Not available.
METAR KBML 291252Z AUTO 00000KT 10SM CLR M06/M16 A3012 RMK AO2 SLP217 T10561156

More Conditions Fewer Conditions

Pressure 30.17 in
Visibility 10.0 miles
Clouds Clear
Windchill 23 °F
Dew Point 5 °F
Humidity 36%
Rainfall 0.00 in
Snow Depth Not available.
UV 2 out of 12
Pollen 3.70 out of 12
Air Quality Not available.
Flu Activity Not available.
METAR KBML 291252Z AUTO 00000KT 10SM CLR M06/M16 A3012 RMK AO2 SLP217 T10561156

More Conditions Fewer Conditions

10-Day Weather Forecast

Almanac

Astronomy

Mar. 29, 2015 Rise Set
Actual Time
Civil Twilight
Nautical Twilight
Astronomical Twilight
Moon
Length of Visible Light
Length of Day
Tomorrow will be .
, % of the Moon is Illuminated

Today's Extremes

State Highs State Lows

Community

WunderPhotos

Upload Photos

1,809,234 photos uploaded!

WunderBlogs® & News

Nearby

Air Quality

  Air Quality AQ Index Pollutant
Not available.

Snow Depth

Station Depth Elevation

Earthquake Activity

City Distance Mag. Time & Date
Minimum magnitude displayed is 2.5.

Coastal Water Temperatures

Place Temperature

Stations

Nearby Weather Stations

Station Location Temp. Windchill Dew Point Humidity Wind Precip. Elev Updated Type